Alpine, CA (91901)

6:38 PM PST on December 28, 2014 (GMT -0800)
Hale Dr | Change Station
CLOSE
Current Station
Personal Weather Station
Location: Alpine, CA
Elevation: 2100 ft
Nearby Weather Stations

Elev 2100 ft 32.85 °N, 116.76 °W | Updated 10 minutes ago

Clear
Clear
43.0 °F
Feels Like 43 °F
N
1.7
Wind Variable Wind from NNE

Today
High -- | Low -- °F
--% Chance of Precip.
Yesterday
High -- | Low -- °F
Precip. -- in
6:48 AM 4:48 PM
First Quarter, 54% visible
Pressure 30.21 in
Visibility 10.0 miles
Clouds Clear
Windchill 43 °F
Dew Point 30 °F
Humidity 59%
Rainfall 0.00 in
Snow Depth Not available.
UV 0 out of 12
Pollen 5.50 out of 12
Air Quality Not available.
Flu Activity Not available.
METAR KRNM 290153Z 30007KT 10SM CLR 07/01 A3019 RMK AO2 SLP228 T00670006

More Conditions Fewer Conditions

Pressure 30.21 in
Visibility 10.0 miles
Clouds Clear
Windchill 43 °F
Dew Point 30 °F
Humidity 59%
Rainfall 0.00 in
Snow Depth Not available.
UV 0 out of 12
Pollen 5.50 out of 12
Air Quality Not available.
Flu Activity Not available.
METAR KRNM 290153Z 30007KT 10SM CLR 07/01 A3019 RMK AO2 SLP228 T00670006

More Conditions Fewer Conditions

10-Day Weather Forecast

Almanac

Astronomy

Dec. 28, 2014 Rise Set
Actual Time
Civil Twilight
Nautical Twilight
Astronomical Twilight
Moon
Length of Visible Light
Length of Day
Tomorrow will be .
, % of the Moon is Illuminated

Today's Extremes

State Highs State Lows

Community

WunderPhotos

Upload Photos

1,781,503 photos uploaded!

WunderBlogs® & News

Nearby

Air Quality

  Air Quality AQ Index Pollutant
Not available.

Snow Depth

Station Depth Elevation

Earthquake Activity

City Distance Mag. Time & Date
Minimum magnitude displayed is 2.5.

Coastal Water Temperatures

Place Temperature

Nearby Weather Stations